sensor_id;sensor_type;location;lat;lon;timestamp;temperature;humidity
17607;DHT22;8922;52.240;20.980;2022-08-23T00:01:39;22.20;99.90
17607;DHT22;8922;52.240;20.980;2022-08-23T00:04:12;22.20;99.90
17607;DHT22;8922;52.240;20.980;2022-08-23T00:06:41;22.10;99.90
17607;DHT22;8922;52.240;20.980;2022-08-23T00:09:08;22.20;99.90
17607;DHT22;8922;52.240;20.980;2022-08-23T00:11:40;22.10;99.90
17607;DHT22;8922;52.240;20.980;2022-08-23T00:14:09;22.10;99.90
17607;DHT22;8922;52.240;20.980;2022-08-23T00:16:37;22.10;99.90
17607;DHT22;8922;52.240;20.980;2022-08-23T00:19:05;22.00;99.90
17607;DHT22;8922;52.240;20.980;2022-08-23T00:21:35;22.10;99.90
17607;DHT22;8922;52.240;20.980;2022-08-23T00:24:03;22.00;99.90
17607;DHT22;8922;52.240;20.980;2022-08-23T00:26:50;22.00;99.90
17607;DHT22;8922;52.240;20.980;2022-08-23T00:29:17;22.00;99.90
17607;DHT22;8922;52.240;20.980;2022-08-23T00:31:44;22.10;99.90
17607;DHT22;8922;52.240;20.980;2022-08-23T00:34:11;22.10;99.90
17607;DHT22;8922;52.240;20.980;2022-08-23T00:36:40;22.10;99.90
17607;DHT22;8922;52.240;20.980;2022-08-23T00:39:10;22.10;99.90
17607;DHT22;8922;52.240;20.980;2022-08-23T00:41:37;22.10;99.90
17607;DHT22;8922;52.240;20.980;2022-08-23T00:44:07;22.00;99.90
17607;DHT22;8922;52.240;20.980;2022-08-23T00:46:56;22.10;99.90
17607;DHT22;8922;52.240;20.980;2022-08-23T00:49:43;22.10;99.90
17607;DHT22;8922;52.240;20.980;2022-08-23T00:52:17;22.10;99.90
17607;DHT22;8922;52.240;20.980;2022-08-23T00:54:46;22.00;99.90
17607;DHT22;8922;52.240;20.980;2022-08-23T00:57:15;22.10;99.90
17607;DHT22;8922;52.240;20.980;2022-08-23T00:59:43;22.10;99.90
17607;DHT22;8922;52.240;20.980;2022-08-23T01:02:11;22.10;99.90
17607;DHT22;8922;52.240;20.980;2022-08-23T01:04:41;22.10;99.90
17607;DHT22;8922;52.240;20.980;2022-08-23T01:07:14;22.10;99.90
17607;DHT22;8922;52.240;20.980;2022-08-23T01:09:43;22.00;99.90
17607;DHT22;8922;52.240;20.980;2022-08-23T01:12:17;22.00;99.90
17607;DHT22;8922;52.240;20.980;2022-08-23T01:14:50;22.00;99.90
17607;DHT22;8922;52.240;20.980;2022-08-23T01:17:21;22.20;99.90
17607;DHT22;8922;52.240;20.980;2022-08-23T01:19:53;22.00;99.90
17607;DHT22;8922;52.240;20.980;2022-08-23T01:22:26;22.10;99.90
17607;DHT22;8922;52.240;20.980;2022-08-23T01:24:55;22.00;99.90
17607;DHT22;8922;52.240;20.980;2022-08-23T01:27:23;22.00;99.90
17607;DHT22;8922;52.240;20.980;2022-08-23T01:29:50;22.00;99.90
17607;DHT22;8922;52.240;20.980;2022-08-23T01:32:17;22.00;99.90
17607;DHT22;8922;52.240;20.980;2022-08-23T01:34:44;22.10;99.90
17607;DHT22;8922;52.240;20.980;2022-08-23T01:37:12;22.10;99.90
17607;DHT22;8922;52.240;20.980;2022-08-23T01:39:39;22.10;99.90
17607;DHT22;8922;52.240;20.980;2022-08-23T01:42:07;22.10;99.90
17607;DHT22;8922;52.240;20.980;2022-08-23T01:44:35;22.20;99.90
17607;DHT22;8922;52.240;20.980;2022-08-23T01:47:02;22.00;99.90
17607;DHT22;8922;52.240;20.980;2022-08-23T01:49:31;22.00;99.90
17607;DHT22;8922;52.240;20.980;2022-08-23T01:51:59;22.00;99.90
17607;DHT22;8922;52.240;20.980;2022-08-23T01:54:25;22.00;99.90
17607;DHT22;8922;52.240;20.980;2022-08-23T01:56:52;22.00;99.90
17607;DHT22;8922;52.240;20.980;2022-08-23T01:59:20;22.00;99.90
17607;DHT22;8922;52.240;20.980;2022-08-23T02:01:48;21.90;99.90
17607;DHT22;8922;52.240;20.980;2022-08-23T02:04:15;21.80;99.90
17607;DHT22;8922;52.240;20.980;2022-08-23T02:06:42;21.70;99.90
17607;DHT22;8922;52.240;20.980;2022-08-23T02:09:09;21.70;99.90
17607;DHT22;8922;52.240;20.980;2022-08-23T02:11:38;21.70;99.90
17607;DHT22;8922;52.240;20.980;2022-08-23T02:14:08;21.60;99.90
17607;DHT22;8922;52.240;20.980;2022-08-23T02:16:41;21.60;99.90
17607;DHT22;8922;52.240;20.980;2022-08-23T02:19:11;21.50;99.90
17607;DHT22;8922;52.240;20.980;2022-08-23T02:21:39;21.50;99.90
17607;DHT22;8922;52.240;20.980;2022-08-23T02:24:09;21.40;99.90
17607;DHT22;8922;52.240;20.980;2022-08-23T02:26:37;21.40;99.90
17607;DHT22;8922;52.240;20.980;2022-08-23T02:29:04;21.30;99.90
17607;DHT22;8922;52.240;20.980;2022-08-23T02:31:32;21.40;99.90
17607;DHT22;8922;52.240;20.980;2022-08-23T02:34:00;21.40;99.90
17607;DHT22;8922;52.240;20.980;2022-08-23T02:36:27;21.40;99.90
17607;DHT22;8922;52.240;20.980;2022-08-23T02:38:55;21.50;99.90
17607;DHT22;8922;52.240;20.980;2022-08-23T02:41:21;21.50;99.90
17607;DHT22;8922;52.240;20.980;2022-08-23T02:43:50;21.50;99.90
17607;DHT22;8922;52.240;20.980;2022-08-23T02:46:18;21.50;99.90
17607;DHT22;8922;52.240;20.980;2022-08-23T02:48:45;21.50;99.90
17607;DHT22;8922;52.240;20.980;2022-08-23T02:51:14;21.50;99.90
17607;DHT22;8922;52.240;20.980;2022-08-23T02:53:42;21.40;99.90
17607;DHT22;8922;52.240;20.980;2022-08-23T02:56:09;21.40;99.90
17607;DHT22;8922;52.240;20.980;2022-08-23T02:58:36;21.50;99.90
17607;DHT22;8922;52.240;20.980;2022-08-23T03:01:05;21.40;99.90
17607;DHT22;8922;52.240;20.980;2022-08-23T03:03:32;21.40;99.90
17607;DHT22;8922;52.240;20.980;2022-08-23T03:05:58;21.30;99.90
17607;DHT22;8922;52.240;20.980;2022-08-23T03:08:26;21.30;99.90
17607;DHT22;8922;52.240;20.980;2022-08-23T03:10:53;21.30;99.90
17607;DHT22;8922;52.240;20.980;2022-08-23T03:13:20;21.40;99.90
17607;DHT22;8922;52.240;20.980;2022-08-23T03:15:47;21.40;99.90
17607;DHT22;8922;52.240;20.980;2022-08-23T03:18:14;21.40;99.90
17607;DHT22;8922;52.240;20.980;2022-08-23T03:20:42;21.40;99.90
17607;DHT22;8922;52.240;20.980;2022-08-23T03:23:09;21.30;99.90
17607;DHT22;8922;52.240;20.980;2022-08-23T03:25:38;21.30;99.90
17607;DHT22;8922;52.240;20.980;2022-08-23T03:28:05;21.20;99.90
17607;DHT22;8922;52.240;20.980;2022-08-23T03:30:33;21.20;99.90
17607;DHT22;8922;52.240;20.980;2022-08-23T03:33:00;21.20;99.90
17607;DHT22;8922;52.240;20.980;2022-08-23T03:35:28;21.10;99.90
17607;DHT22;8922;52.240;20.980;2022-08-23T03:37:54;21.10;99.90
17607;DHT22;8922;52.240;20.980;2022-08-23T03:40:21;21.20;99.90
17607;DHT22;8922;52.240;20.980;2022-08-23T03:42:50;21.20;99.90
17607;DHT22;8922;52.240;20.980;2022-08-23T03:45:17;21.20;99.90
17607;DHT22;8922;52.240;20.980;2022-08-23T03:47:44;21.20;99.90
17607;DHT22;8922;52.240;20.980;2022-08-23T03:50:11;21.20;99.90
17607;DHT22;8922;52.240;20.980;2022-08-23T03:52:37;21.20;99.90
17607;DHT22;8922;52.240;20.980;2022-08-23T03:55:05;21.20;99.90
17607;DHT22;8922;52.240;20.980;2022-08-23T03:57:32;21.20;99.90
17607;DHT22;8922;52.240;20.980;2022-08-23T04:00:00;21.30;99.90
17607;DHT22;8922;52.240;20.980;2022-08-23T04:02:27;21.20;99.90
17607;DHT22;8922;52.240;20.980;2022-08-23T04:04:54;21.20;99.90
17607;DHT22;8922;52.240;20.980;2022-08-23T04:07:22;21.20;99.90
17607;DHT22;8922;52.240;20.980;2022-08-23T04:09:49;21.20;99.90
17607;DHT22;8922;52.240;20.980;2022-08-23T04:12:16;21.20;99.90
17607;DHT22;8922;52.240;20.980;2022-08-23T04:14:43;21.20;99.90
17607;DHT22;8922;52.240;20.980;2022-08-23T04:17:13;21.20;99.90
17607;DHT22;8922;52.240;20.980;2022-08-23T04:19:40;21.20;99.90
17607;DHT22;8922;52.240;20.980;2022-08-23T04:22:11;21.20;99.90
17607;DHT22;8922;52.240;20.980;2022-08-23T04:24:38;21.30;99.90
17607;DHT22;8922;52.240;20.980;2022-08-23T04:27:05;21.30;99.90
17607;DHT22;8922;52.240;20.980;2022-08-23T04:29:32;21.40;99.90
17607;DHT22;8922;52.240;20.980;2022-08-23T04:31:59;21.40;99.90
17607;DHT22;8922;52.240;20.980;2022-08-23T04:34:27;21.50;99.90
17607;DHT22;8922;52.240;20.980;2022-08-23T04:36:54;21.50;99.90
17607;DHT22;8922;52.240;20.980;2022-08-23T04:39:21;21.50;99.90
17607;DHT22;8922;52.240;20.980;2022-08-23T04:41:48;21.50;99.90
17607;DHT22;8922;52.240;20.980;2022-08-23T04:44:32;21.50;99.90
17607;DHT22;8922;52.240;20.980;2022-08-23T04:47:00;21.50;99.90
17607;DHT22;8922;52.240;20.980;2022-08-23T04:49:28;21.60;99.90
17607;DHT22;8922;52.240;20.980;2022-08-23T04:51:55;21.60;99.90
17607;DHT22;8922;52.240;20.980;2022-08-23T04:54:22;21.70;99.90
17607;DHT22;8922;52.240;20.980;2022-08-23T04:56:49;21.70;99.90
17607;DHT22;8922;52.240;20.980;2022-08-23T04:59:15;21.80;99.90
17607;DHT22;8922;52.240;20.980;2022-08-23T05:01:42;21.80;99.90
17607;DHT22;8922;52.240;20.980;2022-08-23T05:04:10;21.80;99.90
17607;DHT22;8922;52.240;20.980;2022-08-23T05:06:38;21.80;99.90
17607;DHT22;8922;52.240;20.980;2022-08-23T05:09:05;21.80;99.90
17607;DHT22;8922;52.240;20.980;2022-08-23T05:11:31;21.80;99.90
17607;DHT22;8922;52.240;20.980;2022-08-23T05:13:58;21.80;99.90
17607;DHT22;8922;52.240;20.980;2022-08-23T05:16:26;21.80;99.90
17607;DHT22;8922;52.240;20.980;2022-08-23T05:18:52;21.80;99.90
17607;DHT22;8922;52.240;20.980;2022-08-23T05:21:21;21.80;99.90
17607;DHT22;8922;52.240;20.980;2022-08-23T05:23:49;21.80;99.90
17607;DHT22;8922;52.240;20.980;2022-08-23T05:26:16;21.80;99.90
17607;DHT22;8922;52.240;20.980;2022-08-23T05:28:45;21.80;99.90
17607;DHT22;8922;52.240;20.980;2022-08-23T05:31:15;21.70;99.90
17607;DHT22;8922;52.240;20.980;2022-08-23T05:33:43;21.70;99.90
17607;DHT22;8922;52.240;20.980;2022-08-23T05:36:11;21.70;99.90
17607;DHT22;8922;52.240;20.980;2022-08-23T05:38:39;21.70;99.90
17607;DHT22;8922;52.240;20.980;2022-08-23T05:41:08;21.70;99.90
17607;DHT22;8922;52.240;20.980;2022-08-23T05:43:36;21.90;99.90
17607;DHT22;8922;52.240;20.980;2022-08-23T05:46:06;21.90;99.90
17607;DHT22;8922;52.240;20.980;2022-08-23T05:48:36;22.00;99.90
17607;DHT22;8922;52.240;20.980;2022-08-23T05:51:10;22.10;99.90
17607;DHT22;8922;52.240;20.980;2022-08-23T05:53:38;22.20;99.90
17607;DHT22;8922;52.240;20.980;2022-08-23T05:56:15;22.30;99.90
17607;DHT22;8922;52.240;20.980;2022-08-23T05:58:43;22.40;99.90
17607;DHT22;8922;52.240;20.980;2022-08-23T06:01:11;22.50;99.90
17607;DHT22;8922;52.240;20.980;2022-08-23T06:03:39;22.60;99.90
17607;DHT22;8922;52.240;20.980;2022-08-23T06:06:06;22.70;99.90
17607;DHT22;8922;52.240;20.980;2022-08-23T06:08:33;22.80;99.90
17607;DHT22;8922;52.240;20.980;2022-08-23T06:11:02;22.90;99.90
17607;DHT22;8922;52.240;20.980;2022-08-23T06:13:31;23.00;99.90
17607;DHT22;8922;52.240;20.980;2022-08-23T06:15:58;23.00;99.90
17607;DHT22;8922;52.240;20.980;2022-08-23T06:18:25;23.20;99.90
17607;DHT22;8922;52.240;20.980;2022-08-23T06:20:59;23.30;99.90
17607;DHT22;8922;52.240;20.980;2022-08-23T06:23:27;23.40;99.90
17607;DHT22;8922;52.240;20.980;2022-08-23T06:25:54;23.60;99.90
17607;DHT22;8922;52.240;20.980;2022-08-23T06:28:21;23.80;99.90
17607;DHT22;8922;52.240;20.980;2022-08-23T06:30:52;23.80;99.90
17607;DHT22;8922;52.240;20.980;2022-08-23T06:33:19;23.90;99.90
17607;DHT22;8922;52.240;20.980;2022-08-23T06:35:46;24.00;99.90
17607;DHT22;8922;52.240;20.980;2022-08-23T06:38:13;24.20;99.90
17607;DHT22;8922;52.240;20.980;2022-08-23T06:40:40;24.30;99.90
17607;DHT22;8922;52.240;20.980;2022-08-23T06:43:06;24.30;99.90
17607;DHT22;8922;52.240;20.980;2022-08-23T06:45:33;24.50;99.90
17607;DHT22;8922;52.240;20.980;2022-08-23T06:48:02;24.60;99.90
17607;DHT22;8922;52.240;20.980;2022-08-23T06:50:29;24.70;99.90
17607;DHT22;8922;52.240;20.980;2022-08-23T06:52:55;24.70;99.90
17607;DHT22;8922;52.240;20.980;2022-08-23T06:55:22;24.80;99.90
17607;DHT22;8922;52.240;20.980;2022-08-23T06:57:49;24.90;99.90
17607;DHT22;8922;52.240;20.980;2022-08-23T07:00:16;25.00;99.90
17607;DHT22;8922;52.240;20.980;2022-08-23T07:02:43;25.10;99.90
17607;DHT22;8922;52.240;20.980;2022-08-23T07:05:11;25.20;99.90
17607;DHT22;8922;52.240;20.980;2022-08-23T07:07:38;25.30;99.90
17607;DHT22;8922;52.240;20.980;2022-08-23T07:10:06;25.40;99.90
17607;DHT22;8922;52.240;20.980;2022-08-23T07:12:38;25.50;99.90
17607;DHT22;8922;52.240;20.980;2022-08-23T07:15:07;25.60;99.90
17607;DHT22;8922;52.240;20.980;2022-08-23T07:17:34;25.60;99.90
17607;DHT22;8922;52.240;20.980;2022-08-23T07:20:01;25.70;99.90
17607;DHT22;8922;52.240;20.980;2022-08-23T07:22:29;25.80;99.90
17607;DHT22;8922;52.240;20.980;2022-08-23T07:24:56;25.80;99.90
17607;DHT22;8922;52.240;20.980;2022-08-23T07:27:23;25.90;99.90
17607;DHT22;8922;52.240;20.980;2022-08-23T07:29:49;25.90;99.90
17607;DHT22;8922;52.240;20.980;2022-08-23T07:32:16;26.00;99.90
17607;DHT22;8922;52.240;20.980;2022-08-23T07:34:43;26.10;99.90
17607;DHT22;8922;52.240;20.980;2022-08-23T07:37:10;26.10;99.90
17607;DHT22;8922;52.240;20.980;2022-08-23T07:39:39;26.20;99.90
17607;DHT22;8922;52.240;20.980;2022-08-23T07:42:06;26.30;99.90
17607;DHT22;8922;52.240;20.980;2022-08-23T07:44:33;26.30;99.90
17607;DHT22;8922;52.240;20.980;2022-08-23T07:47:00;26.30;99.90
17607;DHT22;8922;52.240;20.980;2022-08-23T07:49:27;26.30;99.90
17607;DHT22;8922;52.240;20.980;2022-08-23T07:51:54;26.30;99.90
17607;DHT22;8922;52.240;20.980;2022-08-23T07:54:23;26.40;99.90
17607;DHT22;8922;52.240;20.980;2022-08-23T07:56:51;26.50;99.90
17607;DHT22;8922;52.240;20.980;2022-08-23T07:59:18;26.60;99.90
17607;DHT22;8922;52.240;20.980;2022-08-23T08:01:45;26.60;99.90
17607;DHT22;8922;52.240;20.980;2022-08-23T08:04:12;26.70;99.90
17607;DHT22;8922;52.240;20.980;2022-08-23T08:06:40;26.70;99.90
17607;DHT22;8922;52.240;20.980;2022-08-23T08:09:09;26.70;99.90
17607;DHT22;8922;52.240;20.980;2022-08-23T08:11:39;26.90;99.90
17607;DHT22;8922;52.240;20.980;2022-08-23T08:14:09;27.00;99.90
17607;DHT22;8922;52.240;20.980;2022-08-23T08:16:38;27.10;99.90
17607;DHT22;8922;52.240;20.980;2022-08-23T08:19:08;27.20;99.90
17607;DHT22;8922;52.240;20.980;2022-08-23T08:21:36;27.30;99.90
17607;DHT22;8922;52.240;20.980;2022-08-23T08:24:06;27.40;99.90
17607;DHT22;8922;52.240;20.980;2022-08-23T08:26:32;27.60;99.90
17607;DHT22;8922;52.240;20.980;2022-08-23T08:29:00;27.70;99.90
17607;DHT22;8922;52.240;20.980;2022-08-23T08:31:28;27.80;99.90
17607;DHT22;8922;52.240;20.980;2022-08-23T08:33:55;27.90;99.90
17607;DHT22;8922;52.240;20.980;2022-08-23T08:36:33;27.80;99.90
17607;DHT22;8922;52.240;20.980;2022-08-23T08:39:02;27.70;99.90
17607;DHT22;8922;52.240;20.980;2022-08-23T08:41:42;27.70;99.90
17607;DHT22;8922;52.240;20.980;2022-08-23T08:44:22;27.60;99.90
17607;DHT22;8922;52.240;20.980;2022-08-23T08:46:54;27.60;99.90
17607;DHT22;8922;52.240;20.980;2022-08-23T08:49:32;27.70;99.90
17607;DHT22;8922;52.240;20.980;2022-08-23T08:52:05;27.70;99.90
17607;DHT22;8922;52.240;20.980;2022-08-23T08:54:37;27.70;99.90
17607;DHT22;8922;52.240;20.980;2022-08-23T08:57:05;27.60;99.90
17607;DHT22;8922;52.240;20.980;2022-08-23T08:59:41;27.70;99.90
17607;DHT22;8922;52.240;20.980;2022-08-23T09:02:15;27.70;99.90
17607;DHT22;8922;52.240;20.980;2022-08-23T09:04:42;27.60;99.90
17607;DHT22;8922;52.240;20.980;2022-08-23T09:07:13;27.70;99.90
17607;DHT22;8922;52.240;20.980;2022-08-23T09:09:56;27.80;99.90
17607;DHT22;8922;52.240;20.980;2022-08-23T09:12:31;28.00;99.90
17607;DHT22;8922;52.240;20.980;2022-08-23T09:15:15;28.50;99.90
17607;DHT22;8922;52.240;20.980;2022-08-23T09:17:50;28.90;99.90
17607;DHT22;8922;52.240;20.980;2022-08-23T09:20:20;29.20;99.90
17607;DHT22;8922;52.240;20.980;2022-08-23T09:22:49;29.40;99.90
17607;DHT22;8922;52.240;20.980;2022-08-23T09:25:18;29.60;99.90
17607;DHT22;8922;52.240;20.980;2022-08-23T09:27:45;29.80;99.90
17607;DHT22;8922;52.240;20.980;2022-08-23T09:30:14;30.00;99.90
17607;DHT22;8922;52.240;20.980;2022-08-23T09:32:43;30.20;99.90
17607;DHT22;8922;52.240;20.980;2022-08-23T09:35:14;30.30;99.90
17607;DHT22;8922;52.240;20.980;2022-08-23T09:37:52;30.20;99.90
17607;DHT22;8922;52.240;20.980;2022-08-23T09:40:28;30.40;99.90
17607;DHT22;8922;52.240;20.980;2022-08-23T09:43:06;30.70;99.90
17607;DHT22;8922;52.240;20.980;2022-08-23T09:45:37;31.00;99.90
17607;DHT22;8922;52.240;20.980;2022-08-23T09:48:05;31.40;99.90
17607;DHT22;8922;52.240;20.980;2022-08-23T09:50:40;31.60;99.90
17607;DHT22;8922;52.240;20.980;2022-08-23T09:53:14;32.00;99.90
17607;DHT22;8922;52.240;20.980;2022-08-23T09:55:44;32.30;99.90
17607;DHT22;8922;52.240;20.980;2022-08-23T09:58:16;32.50;99.90
17607;DHT22;8922;52.240;20.980;2022-08-23T10:00:45;33.00;99.90
17607;DHT22;8922;52.240;20.980;2022-08-23T10:03:28;33.00;99.90
17607;DHT22;8922;52.240;20.980;2022-08-23T10:05:58;32.80;99.90
17607;DHT22;8922;52.240;20.980;2022-08-23T10:08:28;33.00;99.90
17607;DHT22;8922;52.240;20.980;2022-08-23T10:11:02;33.40;99.90
17607;DHT22;8922;52.240;20.980;2022-08-23T10:13:31;33.70;99.90
17607;DHT22;8922;52.240;20.980;2022-08-23T10:16:04;33.80;99.90
17607;DHT22;8922;52.240;20.980;2022-08-23T10:18:50;33.90;99.90
17607;DHT22;8922;52.240;20.980;2022-08-23T10:21:24;34.10;99.90
17607;DHT22;8922;52.240;20.980;2022-08-23T10:24:12;34.20;99.90
17607;DHT22;8922;52.240;20.980;2022-08-23T10:26:45;34.20;99.90
17607;DHT22;8922;52.240;20.980;2022-08-23T10:29:21;34.30;99.40
17607;DHT22;8922;52.240;20.980;2022-08-23T10:32:14;34.40;99.00
17607;DHT22;8922;52.240;20.980;2022-08-23T10:35:02;34.30;98.60
17607;DHT22;8922;52.240;20.980;2022-08-23T10:37:44;34.20;98.70
17607;DHT22;8922;52.240;20.980;2022-08-23T10:40:16;33.80;98.60
17607;DHT22;8922;52.240;20.980;2022-08-23T10:42:55;33.30;98.70
17607;DHT22;8922;52.240;20.980;2022-08-23T10:45:30;33.00;99.30
17607;DHT22;8922;52.240;20.980;2022-08-23T10:48:12;33.10;99.50
17607;DHT22;8922;52.240;20.980;2022-08-23T10:50:46;33.00;98.20
17607;DHT22;8922;52.240;20.980;2022-08-23T10:53:18;33.00;98.00
17607;DHT22;8922;52.240;20.980;2022-08-23T10:55:49;33.20;96.70
17607;DHT22;8922;52.240;20.980;2022-08-23T10:58:31;33.40;96.80
17607;DHT22;8922;52.240;20.980;2022-08-23T11:00:58;33.60;95.60
17607;DHT22;8922;52.240;20.980;2022-08-23T11:03:28;33.70;94.90
17607;DHT22;8922;52.240;20.980;2022-08-23T11:06:24;33.80;93.50
17607;DHT22;8922;52.240;20.980;2022-08-23T11:09:02;33.80;91.70
17607;DHT22;8922;52.240;20.980;2022-08-23T11:11:45;33.50;91.50
17607;DHT22;8922;52.240;20.980;2022-08-23T11:14:26;33.40;91.80
17607;DHT22;8922;52.240;20.980;2022-08-23T11:17:00;33.50;91.90
17607;DHT22;8922;52.240;20.980;2022-08-23T11:19:48;33.90;91.70
17607;DHT22;8922;52.240;20.980;2022-08-23T11:22:18;34.20;90.30
17607;DHT22;8922;52.240;20.980;2022-08-23T11:24:53;34.40;88.90
17607;DHT22;8922;52.240;20.980;2022-08-23T11:27:36;34.40;87.90
17607;DHT22;8922;52.240;20.980;2022-08-23T11:30:37;34.30;85.70
17607;DHT22;8922;52.240;20.980;2022-08-23T11:33:15;34.20;84.70
17607;DHT22;8922;52.240;20.980;2022-08-23T11:35:44;34.20;83.70
17607;DHT22;8922;52.240;20.980;2022-08-23T11:38:13;34.20;82.80
17607;DHT22;8922;52.240;20.980;2022-08-23T11:40:57;34.10;82.30
17607;DHT22;8922;52.240;20.980;2022-08-23T11:43:30;33.90;82.00
17607;DHT22;8922;52.240;20.980;2022-08-23T11:46:27;33.80;81.90
17607;DHT22;8922;52.240;20.980;2022-08-23T11:49:11;33.80;82.00
17607;DHT22;8922;52.240;20.980;2022-08-23T11:51:47;33.80;81.40
17607;DHT22;8922;52.240;20.980;2022-08-23T11:54:40;34.00;80.00
17607;DHT22;8922;52.240;20.980;2022-08-23T11:57:18;33.90;79.80
17607;DHT22;8922;52.240;20.980;2022-08-23T12:02:57;33.40;80.30
17607;DHT22;8922;52.240;20.980;2022-08-23T12:08:30;33.30;81.00
17607;DHT22;8922;52.240;20.980;2022-08-23T12:11:01;33.10;81.50
17607;DHT22;8922;52.240;20.980;2022-08-23T12:13:43;33.00;81.50
17607;DHT22;8922;52.240;20.980;2022-08-23T12:16:30;32.90;81.60
17607;DHT22;8922;52.240;20.980;2022-08-23T12:19:01;32.90;82.10
17607;DHT22;8922;52.240;20.980;2022-08-23T12:21:32;32.90;82.00
17607;DHT22;8922;52.240;20.980;2022-08-23T12:24:02;33.10;81.50
17607;DHT22;8922;52.240;20.980;2022-08-23T12:26:44;33.20;80.40
17607;DHT22;8922;52.240;20.980;2022-08-23T12:29:22;33.40;79.70
17607;DHT22;8922;52.240;20.980;2022-08-23T12:31:56;33.60;78.50
17607;DHT22;8922;52.240;20.980;2022-08-23T12:34:33;33.70;77.30
17607;DHT22;8922;52.240;20.980;2022-08-23T12:37:08;33.50;77.20
17607;DHT22;8922;52.240;20.980;2022-08-23T12:39:45;33.30;78.20
17607;DHT22;8922;52.240;20.980;2022-08-23T12:42:15;33.00;79.50
17607;DHT22;8922;52.240;20.980;2022-08-23T12:44:57;32.90;79.50
17607;DHT22;8922;52.240;20.980;2022-08-23T12:47:24;32.80;79.50
17607;DHT22;8922;52.240;20.980;2022-08-23T12:49:57;32.80;79.80
17607;DHT22;8922;52.240;20.980;2022-08-23T12:52:27;32.90;79.80
17607;DHT22;8922;52.240;20.980;2022-08-23T12:54:54;33.10;79.90
17607;DHT22;8922;52.240;20.980;2022-08-23T12:57:29;33.30;79.50
17607;DHT22;8922;52.240;20.980;2022-08-23T13:00:09;33.40;79.40
17607;DHT22;8922;52.240;20.980;2022-08-23T13:02:45;33.60;77.60
17607;DHT22;8922;52.240;20.980;2022-08-23T13:05:18;33.70;77.80
17607;DHT22;8922;52.240;20.980;2022-08-23T13:07:48;33.70;76.30
17607;DHT22;8922;52.240;20.980;2022-08-23T13:10:16;33.70;75.30
17607;DHT22;8922;52.240;20.980;2022-08-23T13:12:43;33.80;75.20
17607;DHT22;8922;52.240;20.980;2022-08-23T13:15:11;33.80;74.80
17607;DHT22;8922;52.240;20.980;2022-08-23T13:17:38;33.70;74.50
17607;DHT22;8922;52.240;20.980;2022-08-23T13:20:20;33.70;74.60
17607;DHT22;8922;52.240;20.980;2022-08-23T13:22:59;33.40;75.00
17607;DHT22;8922;52.240;20.980;2022-08-23T13:25:29;33.10;75.60
17607;DHT22;8922;52.240;20.980;2022-08-23T13:27:58;32.90;75.60
17607;DHT22;8922;52.240;20.980;2022-08-23T13:30:28;32.80;76.10
17607;DHT22;8922;52.240;20.980;2022-08-23T13:33:18;32.80;76.60
17607;DHT22;8922;52.240;20.980;2022-08-23T13:35:46;32.80;75.80
17607;DHT22;8922;52.240;20.980;2022-08-23T13:38:20;32.80;75.10
17607;DHT22;8922;52.240;20.980;2022-08-23T13:40:58;32.90;74.50
17607;DHT22;8922;52.240;20.980;2022-08-23T13:43:29;32.80;74.30
17607;DHT22;8922;52.240;20.980;2022-08-23T13:46:08;32.90;74.40
17607;DHT22;8922;52.240;20.980;2022-08-23T13:48:35;33.00;74.70
17607;DHT22;8922;52.240;20.980;2022-08-23T13:51:23;33.10;75.10
17607;DHT22;8922;52.240;20.980;2022-08-23T13:53:51;33.20;74.00
17607;DHT22;8922;52.240;20.980;2022-08-23T13:56:18;33.10;73.50
17607;DHT22;8922;52.240;20.980;2022-08-23T13:58:53;33.10;73.30
17607;DHT22;8922;52.240;20.980;2022-08-23T14:01:21;33.00;73.30
17607;DHT22;8922;52.240;20.980;2022-08-23T14:03:48;32.80;73.00
17607;DHT22;8922;52.240;20.980;2022-08-23T14:06:15;32.40;72.70
17607;DHT22;8922;52.240;20.980;2022-08-23T14:08:42;32.10;73.40
17607;DHT22;8922;52.240;20.980;2022-08-23T14:11:10;31.80;74.20
17607;DHT22;8922;52.240;20.980;2022-08-23T14:13:39;31.60;74.80
17607;DHT22;8922;52.240;20.980;2022-08-23T14:16:07;31.40;75.70
17607;DHT22;8922;52.240;20.980;2022-08-23T14:18:35;31.20;76.40
17607;DHT22;8922;52.240;20.980;2022-08-23T14:21:02;31.00;77.30
17607;DHT22;8922;52.240;20.980;2022-08-23T14:23:29;30.90;77.90
17607;DHT22;8922;52.240;20.980;2022-08-23T14:25:57;30.80;78.70
17607;DHT22;8922;52.240;20.980;2022-08-23T14:28:27;30.60;79.30
17607;DHT22;8922;52.240;20.980;2022-08-23T14:30:54;30.50;79.90
17607;DHT22;8922;52.240;20.980;2022-08-23T14:33:21;30.40;80.50
17607;DHT22;8922;52.240;20.980;2022-08-23T14:35:49;30.20;81.00
17607;DHT22;8922;52.240;20.980;2022-08-23T14:38:16;30.20;81.70
17607;DHT22;8922;52.240;20.980;2022-08-23T14:40:50;30.10;82.00
17607;DHT22;8922;52.240;20.980;2022-08-23T14:43:18;30.10;82.50
17607;DHT22;8922;52.240;20.980;2022-08-23T14:45:45;30.00;82.30
17607;DHT22;8922;52.240;20.980;2022-08-23T14:48:11;30.00;82.50
17607;DHT22;8922;52.240;20.980;2022-08-23T14:50:39;29.90;82.60
17607;DHT22;8922;52.240;20.980;2022-08-23T14:53:07;29.90;82.90
17607;DHT22;8922;52.240;20.980;2022-08-23T14:55:34;29.80;83.20
17607;DHT22;8922;52.240;20.980;2022-08-23T14:58:01;29.80;83.70
17607;DHT22;8922;52.240;20.980;2022-08-23T15:00:28;29.80;84.10
17607;DHT22;8922;52.240;20.980;2022-08-23T15:02:55;29.80;84.10
17607;DHT22;8922;52.240;20.980;2022-08-23T15:05:22;29.80;84.20
17607;DHT22;8922;52.240;20.980;2022-08-23T15:07:49;29.80;84.20
17607;DHT22;8922;52.240;20.980;2022-08-23T15:10:17;29.80;84.20
17607;DHT22;8922;52.240;20.980;2022-08-23T15:12:44;29.70;84.60
17607;DHT22;8922;52.240;20.980;2022-08-23T15:15:14;29.70;84.60
17607;DHT22;8922;52.240;20.980;2022-08-23T15:17:45;29.60;84.60
17607;DHT22;8922;52.240;20.980;2022-08-23T15:20:13;29.60;84.50
17607;DHT22;8922;52.240;20.980;2022-08-23T15:22:39;29.60;84.70
17607;DHT22;8922;52.240;20.980;2022-08-23T15:25:07;29.60;85.00
17607;DHT22;8922;52.240;20.980;2022-08-23T15:27:35;29.60;85.10
17607;DHT22;8922;52.240;20.980;2022-08-23T15:30:02;29.50;85.20
17607;DHT22;8922;52.240;20.980;2022-08-23T15:32:29;29.50;85.20
17607;DHT22;8922;52.240;20.980;2022-08-23T15:34:56;29.50;85.20
17607;DHT22;8922;52.240;20.980;2022-08-23T15:37:23;29.50;85.60
17607;DHT22;8922;52.240;20.980;2022-08-23T15:39:51;29.40;85.20
17607;DHT22;8922;52.240;20.980;2022-08-23T15:42:18;29.40;85.70
17607;DHT22;8922;52.240;20.980;2022-08-23T15:44:46;29.40;88.90
17607;DHT22;8922;52.240;20.980;2022-08-23T15:47:17;29.30;90.90
17607;DHT22;8922;52.240;20.980;2022-08-23T15:49:45;29.20;92.10
17607;DHT22;8922;52.240;20.980;2022-08-23T15:52:13;29.10;93.00
17607;DHT22;8922;52.240;20.980;2022-08-23T15:54:40;29.00;94.00
17607;DHT22;8922;52.240;20.980;2022-08-23T15:57:07;28.80;94.70